Time;durP1;ratioP1;P1;durP2;ratioP2;P2;SDS_P1;SDS_P2;PMS_P1;PMS_P2;Temp;Humidity;BMP_temperature;BMP_pressure;BME280_temperature;BME280_humidity;BME280_pressure;Samples;Min_cycle;Max_cycle;Signal;HPM_P1;HPM_P2
2023/08/16 00:00:51;;;;;;;12.70;7.40;;;;;;;23.23;100.00;101502.44;2520588;23;20181;-68
2023/08/16 00:01:51;;;;;;;9.43;6.93;;;;;;;23.21;100.00;101502.94;2520583;23;20598;-68
2023/08/16 00:02:52;;;;;;;11.57;7.53;;;;;;;23.17;100.00;101510.81;2520887;23;20184;-68
2023/08/16 00:03:52;;;;;;;11.43;7.50;;;;;;;23.19;100.00;101504.72;2521225;23;20210;-68
2023/08/16 00:04:52;;;;;;;9.83;7.20;;;;;;;22.80;100.00;101453.38;2520224;23;20234;-68
2023/08/16 00:05:53;;;;;;;16.33;7.40;;;;;;;23.14;100.00;101508.22;2520653;23;20186;-68
2023/08/16 00:06:54;;;;;;;11.47;6.97;;;;;;;22.44;100.00;101402.31;2520063;23;20191;-68
2023/08/16 00:07:54;;;;;;;11.30;7.27;;;;;;;23.10;100.00;101513.31;2520678;23;20163;-68
2023/08/16 00:08:58;;;;;;;11.43;7.97;;;;;;;22.87;100.00;101469.88;2520751;23;20155;-68
2023/08/16 00:09:58;;;;;;;13.67;7.63;;;;;;;23.09;100.00;101508.94;2520661;23;20242;-68
2023/08/16 00:10:59;;;;;;;18.00;7.57;;;;;;;22.47;100.00;101415.50;2521013;23;20155;-68
2023/08/16 00:11:59;;;;;;;13.93;7.83;;;;;;;22.33;100.00;101393.72;2520580;23;20226;-68
2023/08/16 00:13:00;;;;;;;14.17;7.23;;;;;;;23.05;100.00;101506.34;2520961;23;20159;-68
2023/08/16 00:14:00;;;;;;;11.57;8.00;;;;;;;22.99;100.00;101507.53;2521070;23;20161;-68
2023/08/16 00:15:01;;;;;;;10.00;7.17;;;;;;;23.06;100.00;101512.75;2507865;23;20159;-68
2023/08/16 00:16:02;;;;;;;12.33;7.03;;;;;;;23.05;100.00;101512.00;2507604;23;20239;-68
2023/08/16 00:17:02;;;;;;;11.53;7.07;;;;;;;23.06;100.00;101516.38;2520113;23;20151;-67
2023/08/16 00:18:03;;;;;;;10.93;7.40;;;;;;;22.94;100.00;101503.38;2521051;23;20190;-68
2023/08/16 00:19:04;;;;;;;11.27;7.13;;;;;;;23.03;100.00;101519.41;2520786;23;20518;-68
2023/08/16 00:20:06;;;;;;;11.07;7.10;;;;;;;22.37;100.00;101420.44;2520431;23;20187;-68
2023/08/16 00:21:06;;;;;;;10.80;7.10;;;;;;;23.05;100.00;101517.66;2520991;23;20151;-68
2023/08/16 00:22:06;;;;;;;8.83;6.87;;;;;;;23.07;100.00;101519.94;2521051;23;20194;-68
2023/08/16 00:23:07;;;;;;;9.63;7.57;;;;;;;22.96;100.00;101497.22;2520877;23;20581;-68
2023/08/16 00:24:07;;;;;;;7.93;6.83;;;;;;;22.99;100.00;101507.53;2521233;23;20562;-68
2023/08/16 00:25:08;;;;;;;12.13;7.03;;;;;;;22.64;100.00;101447.53;2521064;23;20506;-68
2023/08/16 00:26:09;;;;;;;11.70;7.30;;;;;;;23.11;100.00;101524.13;2519386;23;20194;-68
2023/08/16 00:27:09;;;;;;;12.27;7.00;;;;;;;23.14;100.00;101517.47;2519663;23;20179;-68
2023/08/16 00:28:10;;;;;;;12.73;7.03;;;;;;;23.15;100.00;101519.03;2507917;23;20156;-68
2023/08/16 00:29:10;;;;;;;8.00;6.63;;;;;;;23.17;100.00;101518.53;2508060;23;20152;-68
2023/08/16 00:30:11;;;;;;;16.27;7.30;;;;;;;23.17;100.00;101519.31;2520590;23;20151;-68
2023/08/16 00:31:11;;;;;;;8.90;6.87;;;;;;;;;;2520902;23;20151;-68
2023/08/16 00:32:12;;;;;;;13.30;7.17;;;;;;;23.18;100.00;101525.78;2521012;23;20172;-68
2023/08/16 00:33:13;;;;;;;11.13;6.93;;;;;;;23.19;100.00;101516.03;2520112;23;20503;-68
2023/08/16 00:34:13;;;;;;;9.57;7.50;;;;;;;23.22;100.00;101529.16;2520323;23;20542;-68
2023/08/16 00:35:13;;;;;;;12.17;6.97;;;;;;;23.21;100.00;101519.91;2520864;23;20162;-68
2023/08/16 00:36:14;;;;;;;13.97;7.10;;;;;;;22.97;100.00;101493.91;2519873;23;20206;-68
2023/08/16 00:37:14;;;;;;;12.07;7.43;;;;;;;23.22;100.00;101523.50;2506961;23;20246;-68
2023/08/16 00:38:15;;;;;;;10.77;6.90;;;;;;;23.23;100.00;101525.81;2508149;23;20615;-67
2023/08/16 00:39:15;;;;;;;15.83;7.60;;;;;;;23.22;100.00;101527.09;2520687;23;20174;-68
2023/08/16 00:40:16;;;;;;;11.97;7.40;;;;;;;23.16;100.00;101531.91;2520346;23;20183;-68
2023/08/16 00:41:17;;;;;;;10.77;7.47;;;;;;;23.21;100.00;101524.78;2520601;23;20173;-68
2023/08/16 00:42:17;;;;;;;9.33;7.47;;;;;;;23.20;100.00;101526.06;2520978;23;20159;-68
2023/08/16 00:43:18;;;;;;;13.33;7.60;;;;;;;23.22;100.00;101526.31;2520968;23;20154;-68
2023/08/16 00:44:18;;;;;;;17.67;7.60;;;;;;;23.06;100.00;101498.63;2520721;23;20158;-68
2023/08/16 00:45:19;;;;;;;9.73;7.07;;;;;;;23.21;100.00;101521.94;2520919;23;20239;-68
2023/08/16 00:46:20;;;;;;;12.77;7.30;;;;;;;23.04;100.00;101499.13;2520411;23;20148;-68
2023/08/16 00:47:21;;;;;;;9.60;7.53;;;;;;;23.18;100.00;101526.53;2519503;23;20148;-68
2023/08/16 00:48:21;;;;;;;9.60;7.30;;;;;;;23.21;100.00;101527.59;2520469;23;20147;-68
2023/08/16 00:49:22;;;;;;;10.13;7.10;;;;;;;23.24;100.00;101527.38;2521271;23;20238;-68
2023/08/16 00:50:24;;;;;;;11.73;7.17;;;;;;;23.25;100.00;101531.78;2520418;23;20202;-68
2023/08/16 00:51:24;;;;;;;12.60;7.40;;;;;;;22.42;100.00;101402.03;2520153;23;20549;-68
2023/08/16 00:52:25;;;;;;;12.57;7.50;;;;;;;23.24;100.00;101532.28;2520837;23;20174;-68
2023/08/16 00:53:28;;;;;;;15.60;7.90;;;;;;;23.27;100.00;101531.25;2520580;23;20154;-68
2023/08/16 00:54:28;;;;;;;22.17;8.37;;;;;;;22.49;100.00;101425.03;2520552;23;20257;-67
2023/08/16 00:55:29;;;;;;;13.30;7.27;;;;;;;23.30;100.00;101527.44;2507634;23;20210;-68
2023/08/16 00:56:30;;;;;;;13.83;7.70;;;;;;;23.33;100.00;101534.94;2507581;23;20178;-67
2023/08/16 00:57:30;;;;;;;16.77;7.40;;;;;;;23.30;100.00;101531.06;2519544;23;20151;-68
2023/08/16 00:58:31;;;;;;;13.70;7.03;;;;;;;23.28;100.00;101525.09;2520463;23;20214;-67
2023/08/16 00:59:32;;;;;;;14.50;7.40;;;;;;;23.29;100.00;101532.31;2520718;23;20193;-68
2023/08/16 01:00:32;;;;;;;15.47;8.10;;;;;;;23.23;100.00;101525.81;2520241;23;20158;-68
2023/08/16 01:01:33;;;;;;;11.37;7.07;;;;;;;23.32;100.00;101527.72;2520896;23;20478;-68
2023/08/16 01:02:33;;;;;;;14.60;7.30;;;;;;;23.32;100.00;101528.50;2520771;23;20162;-67
2023/08/16 01:03:34;;;;;;;10.20;6.87;;;;;;;22.35;100.00;101377.81;2520853;23;20186;-67
2023/08/16 01:04:34;;;;;;;14.20;6.87;;;;;;;22.89;100.00;101466.56;2520686;23;20151;-68
2023/08/16 01:05:35;;;;;;;16.63;7.60;;;;;;;23.29;100.00;101526.66;2520840;23;20149;-68
2023/08/16 01:06:35;;;;;;;22.07;8.90;;;;;;;23.26;100.00;101522.00;2520184;23;20164;-68
2023/08/16 01:07:35;;;;;;;25.00;9.27;;;;;;;23.22;100.00;101521.44;2519708;23;20230;-68
2023/08/16 01:08:36;;;;;;;21.20;8.40;;;;;;;23.21;100.00;101522.72;2519701;23;20162;-68
2023/08/16 01:09:37;;;;;;;12.73;7.27;;;;;;;22.98;100.00;101500.34;2519722;23;20159;-68
2023/08/16 01:10:53;;;;;;;16.33;7.80;;;;;;;23.06;100.00;101513.53;2520518;23;20503;-68
2023/08/16 01:12:02;;;;;;;12.67;8.23;;;;;;;23.06;100.00;101521.22;2520689;23;20147;-68
2023/08/16 01:13:10;;;;;;;15.33;8.50;;;;;;;23.03;100.00;101517.34;2520658;23;20155;-68
2023/08/16 01:14:16;;;;;;;13.87;8.57;;;;;;;22.28;100.00;101405.72;2520850;23;20647;-68
2023/08/16 01:15:29;;;;;;;13.10;7.90;;;;;;;23.03;100.00;101522.25;2520617;23;20171;-68
2023/08/16 01:16:33;;;;;;;12.70;7.63;;;;;;;23.05;100.00;101526.13;2520181;23;20174;-68
2023/08/16 01:17:33;;;;;;;17.17;8.57;;;;;;;22.92;100.00;101511.56;2520332;23;20171;-68
2023/08/16 01:18:36;;;;;;;18.23;8.07;;;;;;;23.01;100.00;101521.94;2519686;23;20646;-68
2023/08/16 01:19:37;;;;;;;14.73;8.20;;;;;;;22.60;100.00;101466.72;2520334;23;20179;-68
2023/08/16 01:20:39;;;;;;;16.77;8.03;;;;;;;23.02;100.00;101524.28;2520500;23;20155;-68
2023/08/16 01:21:47;;;;;;;14.93;8.13;;;;;;;23.04;100.00;101521.75;2520848;23;20198;-68
2023/08/16 01:23:24;;;;;;;14.00;8.57;;;;;;;23.03;100.00;101528.66;2520801;23;20143;-68
2023/08/16 01:24:33;;;;;;;14.60;7.87;;;;;;;23.02;100.00;101518.63;2520666;23;20159;-67
2023/08/16 01:26:06;;;;;;;12.30;7.53;;;;;;;23.02;100.00;101524.28;2520928;23;20132;-68
2023/08/16 01:27:07;;;;;;;10.73;7.60;;;;;;;22.94;100.00;101513.91;2519421;23;20246;-68
2023/08/16 01:28:09;;;;;;;8.43;7.50;;;;;;;23.04;100.00;101526.63;2520725;23;20674;-68
2023/08/16 01:29:10;;;;;;;13.87;7.67;;;;;;;23.05;100.00;101526.13;2519295;23;20155;-69
2023/08/16 01:30:12;;;;;;;8.10;7.00;;;;;;;23.00;100.00;101526.06;2520448;23;20147;-68
2023/08/16 01:31:13;;;;;;;11.13;7.50;;;;;;;23.07;100.00;101532.06;2520663;23;20151;-68
2023/08/16 01:32:14;;;;;;;8.53;7.53;;;;;;;23.05;100.00;101531.00;2520338;23;20238;-68
2023/08/16 01:33:15;;;;;;;10.77;7.80;;;;;;;23.02;100.00;101523.53;2520494;23;20180;-68
2023/08/16 01:34:15;;;;;;;8.50;7.70;;;;;;;23.01;100.00;101519.13;2520781;23;20155;-68
2023/08/16 01:35:16;;;;;;;10.33;7.63;;;;;;;22.99;100.00;101525.28;2520623;23;20175;-68
2023/08/16 01:36:17;;;;;;;10.33;8.10;;;;;;;22.29;100.00;101418.56;2520185;23;20183;-68
2023/08/16 01:37:17;;;;;;;8.77;7.87;;;;;;;22.91;100.00;101531.84;2519902;23;20175;-68
2023/08/16 01:38:18;;;;;;;11.50;7.83;;;;;;;22.83;100.00;101520.19;2520196;23;20703;-68
2023/08/16 01:39:18;;;;;;;9.00;8.10;;;;;;;22.78;100.00;101518.06;2519550;23;20598;-68
2023/08/16 01:40:19;;;;;;;10.60;7.77;;;;;;;22.78;100.00;101517.31;2520125;23;20552;-68
2023/08/16 01:41:30;;;;;;;10.63;7.90;;;;;;;22.78;100.00;101525.78;2520539;23;20147;-68
2023/08/16 01:42:35;;;;;;;11.90;8.40;;;;;;;22.79;100.00;101530.97;2520526;23;20139;-68
2023/08/16 01:43:37;;;;;;;10.43;7.87;;;;;;;21.78;100.00;101384.50;2520747;23;20151;-68
2023/08/16 01:44:38;;;;;;;12.20;8.20;;;;;;;22.80;100.00;101526.06;2520576;23;20155;-68
2023/08/16 01:45:38;;;;;;;11.20;7.90;;;;;;;22.78;100.00;101531.44;2520657;23;20219;-68
2023/08/16 01:46:41;;;;;;;10.77;8.20;;;;;;;22.76;100.00;101529.09;2520545;23;20159;-68
2023/08/16 01:47:42;;;;;;;8.43;7.53;;;;;;;22.76;100.00;101531.94;2519867;23;20159;-68
2023/08/16 01:48:45;;;;;;;9.53;8.60;;;;;;;22.75;100.00;101530.38;2520401;23;20166;-68
2023/08/16 01:49:46;;;;;;;10.90;8.37;;;;;;;22.74;100.00;101533.69;2519278;23;20519;-68
2023/08/16 01:50:46;;;;;;;8.67;7.80;;;;;;;22.74;100.00;101528.84;2520680;23;20155;-68
2023/08/16 01:51:47;;;;;;;8.60;7.80;;;;;;;22.76;100.00;101531.94;2507845;23;20164;-67
2023/08/16 01:52:47;;;;;;;9.43;8.13;;;;;;;22.12;100.00;101435.28;2507176;23;20166;-68
2023/08/16 01:53:53;;;;;;;10.60;8.47;;;;;;;22.74;100.00;101528.03;2520503;23;20306;-68
2023/08/16 01:54:53;;;;;;;9.70;8.20;;;;;;;22.74;100.00;101530.88;2520502;23;20653;-67
2023/08/16 01:55:53;;;;;;;9.53;8.53;;;;;;;22.73;100.00;101543.47;2519989;23;20513;-68
2023/08/16 01:56:54;;;;;;;8.70;7.80;;;;;;;22.73;100.00;101537.81;2520125;23;20159;-68
2023/08/16 01:57:54;;;;;;;9.60;7.50;;;;;;;22.75;100.00;101540.91;2520589;23;20183;-68
2023/08/16 01:58:55;;;;;;;8.40;7.37;;;;;;;22.66;100.00;101541.03;2520412;23;20155;-68
2023/08/16 01:59:55;;;;;;;9.07;8.17;;;;;;;22.66;100.00;101535.38;2519857;23;20534;-68
2023/08/16 02:00:55;;;;;;;9.90;8.00;;;;;;;22.68;100.00;101552.63;2519784;23;20483;-68
2023/08/16 02:01:56;;;;;;;10.07;8.10;;;;;;;22.69;100.00;101543.69;2520854;23;20238;-68
2023/08/16 02:02:56;;;;;;;8.90;7.67;;;;;;;22.70;100.00;101538.78;2520537;23;20158;-68
2023/08/16 02:03:57;;;;;;;10.77;8.23;;;;;;;22.71;100.00;101540.31;2520542;23;20174;-68
2023/08/16 02:04:57;;;;;;;9.73;8.50;;;;;;;22.69;100.00;101526.72;2520429;23;20151;-68
2023/08/16 02:05:58;;;;;;;10.63;9.07;;;;;;;22.65;100.00;101534.63;2520061;23;20179;-68
2023/08/16 02:06:58;;;;;;;10.03;8.47;;;;;;;22.51;100.00;101512.84;2519305;23;20557;-68
2023/08/16 02:07:58;;;;;;;18.73;9.90;;;;;;;22.58;100.00;101528.63;2520500;23;20151;-68
2023/08/16 02:08:59;;;;;;;12.90;9.53;;;;;;;22.53;100.00;101532.13;2520157;23;20158;-68
2023/08/16 02:09:59;;;;;;;13.73;9.50;;;;;;;22.56;100.00;101529.09;2520098;23;20543;-68
2023/08/16 02:11:00;;;;;;;12.40;9.53;;;;;;;22.59;100.00;101530.16;2519544;23;20166;-68
2023/08/16 02:12:00;;;;;;;10.67;9.57;;;;;;;22.58;100.00;101535.06;2520706;23;20171;-68
2023/08/16 02:13:01;;;;;;;18.67;10.43;;;;;;;22.59;100.00;101533.00;2520565;23;20183;-68
2023/08/16 02:14:01;;;;;;;17.03;10.43;;;;;;;22.64;100.00;101535.13;2520636;23;20155;-68
2023/08/16 02:15:02;;;;;;;13.47;9.80;;;;;;;22.64;100.00;101541.56;2520423;23;20182;-68
2023/08/16 02:16:03;;;;;;;16.47;9.10;;;;;;;22.65;100.00;101540.28;2520054;23;20551;-68
2023/08/16 02:17:04;;;;;;;11.37;8.80;;;;;;;22.65;100.00;101543.09;2519940;23;20160;-68
2023/08/16 02:18:10;;;;;;;13.57;8.80;;;;;;;22.63;100.00;101530.75;2520584;23;20155;-68
2023/08/16 02:19:10;;;;;;;15.33;9.80;;;;;;;22.09;100.00;101450.38;2520664;23;20135;-68
2023/08/16 02:20:12;;;;;;;11.23;8.87;;;;;;;22.70;100.00;101542.41;2519957;23;20637;-68
2023/08/16 02:21:13;;;;;;;15.13;8.83;;;;;;;22.71;100.00;101543.16;2519079;23;20182;-68
2023/08/16 02:22:13;;;;;;;12.17;8.90;;;;;;;22.68;100.00;101544.91;2520118;23;20155;-68
2023/08/16 02:23:13;;;;;;;12.37;9.20;;;;;;;22.67;100.00;101534.91;2520499;23;20238;-67
2023/08/16 02:24:14;;;;;;;13.00;9.20;;;;;;;22.66;100.00;101530.53;2520569;23;20162;-68
2023/08/16 02:25:14;;;;;;;10.80;9.10;;;;;;;22.32;100.00;101476.88;2520519;23;20179;-68
2023/08/16 02:26:15;;;;;;;14.30;9.03;;;;;;;22.70;100.00;101541.59;2519931;23;20641;-68
2023/08/16 02:27:15;;;;;;;13.37;9.33;;;;;;;22.63;100.00;101536.38;2519649;23;20556;-68
2023/08/16 02:28:15;;;;;;;14.27;10.27;;;;;;;22.57;100.00;101536.31;2520613;23;20227;-67
2023/08/16 02:29:16;;;;;;;12.07;9.00;;;;;;;22.56;100.00;101540.41;2520678;23;20147;-68
2023/08/16 02:30:16;;;;;;;15.73;9.30;;;;;;;22.51;100.00;101532.63;2520042;23;20147;-68
2023/08/16 02:31:17;;;;;;;16.90;9.27;;;;;;;21.69;100.00;101410.78;2520093;23;20174;-68
2023/08/16 02:32:18;;;;;;;11.37;9.23;;;;;;;22.57;100.00;101535.53;2519765;23;20593;-68
2023/08/16 02:33:18;;;;;;;10.43;9.30;;;;;;;22.04;100.00;101467.22;2507784;23;20159;-68
2023/08/16 02:34:19;;;;;;;13.23;9.00;;;;;;;22.36;100.00;101512.09;2507022;23;20148;-68
2023/08/16 02:35:19;;;;;;;13.87;9.37;;;;;;;22.59;100.00;101541.47;2518924;23;20230;-67
2023/08/16 02:36:20;;;;;;;11.60;9.30;;;;;;;22.53;100.00;101532.94;2518641;23;20621;-68
2023/08/16 02:37:20;;;;;;;11.97;8.80;;;;;;;22.41;100.00;101517.06;2519948;23;20151;-68
2023/08/16 02:38:20;;;;;;;11.20;9.30;;;;;;;22.61;100.00;101545.34;2520501;23;20159;-68
2023/08/16 02:39:21;;;;;;;9.30;8.40;;;;;;;22.61;100.00;101542.53;2520252;23;20230;-68
2023/08/16 02:40:21;;;;;;;12.63;8.30;;;;;;;22.62;100.00;101540.50;2520014;23;20185;-68
2023/08/16 02:41:22;;;;;;;12.83;8.30;;;;;;;22.58;100.00;101546.34;2520175;23;20151;-68
2023/08/16 02:42:23;;;;;;;14.07;8.77;;;;;;;22.59;100.00;101544.28;2519935;23;20147;-68
2023/08/16 02:43:23;;;;;;;9.67;8.23;;;;;;;22.65;100.00;101542.31;2520512;23;20617;-68
2023/08/16 02:44:23;;;;;;;9.20;8.20;;;;;;;22.67;100.00;101543.38;2520416;23;20158;-68
2023/08/16 02:45:24;;;;;;;13.40;8.60;;;;;;;22.08;100.00;101456.50;2520576;23;20159;-68
2023/08/16 02:46:24;;;;;;;10.97;8.70;;;;;;;22.31;100.00;101475.34;2520159;23;20155;-68
2023/08/16 02:47:25;;;;;;;13.70;8.80;;;;;;;22.74;100.00;101548.63;2519649;23;20185;-68
2023/08/16 02:48:26;;;;;;;14.40;8.83;;;;;;;22.77;100.00;101549.69;2519887;23;20181;-67
2023/08/16 02:49:26;;;;;;;12.80;8.83;;;;;;;22.77;100.00;101544.03;2520116;23;20230;-68
2023/08/16 02:50:26;;;;;;;13.27;8.80;;;;;;;22.78;100.00;101546.34;2520272;23;20143;-68
2023/08/16 02:51:27;;;;;;;13.10;9.00;;;;;;;22.77;100.00;101539.13;2519889;23;20147;-68
2023/08/16 02:52:27;;;;;;;12.70;8.80;;;;;;;22.82;100.00;101544.09;2520456;23;20234;-68
2023/08/16 02:53:28;;;;;;;12.83;8.23;;;;;;;22.74;100.00;101540.16;2519966;23;20151;-68
2023/08/16 02:54:28;;;;;;;12.97;8.33;;;;;;;22.88;100.00;101550.56;2519925;23;20248;-67
2023/08/16 02:55:29;;;;;;;11.80;7.30;;;;;;;22.89;100.00;101562.66;2520355;23;20139;-68
2023/08/16 02:56:30;;;;;;;11.47;8.30;;;;;;;22.89;100.00;101552.16;2519781;23;20157;-68
2023/08/16 02:57:30;;;;;;;13.70;8.20;;;;;;;22.89;100.00;101554.97;2519940;23;20154;-68
2023/08/16 02:58:30;;;;;;;10.53;7.97;;;;;;;22.90;100.00;101555.75;2520563;23;20151;-68
2023/08/16 02:59:41;;;;;;;12.50;7.90;;;;;;;22.34;100.00;101475.13;2520422;23;20504;-68
2023/08/16 03:00:41;;;;;;;10.17;8.33;;;;;;;22.92;100.00;101561.69;2520421;23;20513;-68
2023/08/16 03:01:42;;;;;;;14.77;8.33;;;;;;;22.94;100.00;101556.31;2520091;23;20159;-68
2023/08/16 03:02:42;;;;;;;15.33;8.17;;;;;;;22.93;100.00;101554.75;2520294;23;20620;-68
2023/08/16 03:03:42;;;;;;;18.17;9.00;;;;;;;22.94;100.00;101557.09;2519130;23;20159;-68
2023/08/16 03:04:43;;;;;;;14.93;8.43;;;;;;;22.94;100.00;101545.00;2520490;23;20250;-68
2023/08/16 03:05:44;;;;;;;14.27;8.33;;;;;;;22.63;100.00;101506.06;2519858;23;20155;-68
2023/08/16 03:06:44;;;;;;;17.23;8.90;;;;;;;22.97;100.00;101539.13;2520231;23;20182;-68
2023/08/16 03:07:45;;;;;;;14.67;8.80;;;;;;;22.89;100.00;101514.63;2520292;23;20151;-68
2023/08/16 03:08:45;;;;;;;12.13;8.23;;;;;;;23.02;100.00;101535.59;2519572;23;20757;-68
2023/08/16 03:09:46;;;;;;;13.70;8.57;;;;;;;23.05;100.00;101540.25;2519991;23;20613;-67
2023/08/16 03:10:46;;;;;;;14.97;8.30;;;;;;;23.02;100.00;101541.25;2520451;23;20162;-68
2023/08/16 03:11:49;;;;;;;9.70;8.00;;;;;;;23.02;100.00;101540.47;2520227;23;20151;-68
2023/08/16 03:12:49;;;;;;;11.77;8.07;;;;;;;23.03;100.00;101548.44;2520303;23;20159;-68
2023/08/16 03:13:50;;;;;;;10.97;8.47;;;;;;;23.02;100.00;101561.03;2519833;23;20159;-68
2023/08/16 03:14:50;;;;;;;11.00;7.37;;;;;;;22.95;100.00;101553.00;2520161;23;20155;-68
2023/08/16 03:15:51;;;;;;;15.87;8.00;;;;;;;22.97;100.00;101558.16;2520100;23;20179;-68
2023/08/16 03:16:51;;;;;;;10.57;8.20;;;;;;;22.95;100.00;101555.03;2519997;23;20151;-68
2023/08/16 03:17:51;;;;;;;11.30;8.27;;;;;;;22.96;100.00;101556.56;2519826;23;20515;-68
2023/08/16 03:18:52;;;;;;;14.73;8.67;;;;;;;22.92;100.00;101556.03;2519899;23;20179;-68
2023/08/16 03:19:52;;;;;;;15.13;8.47;;;;;;;22.60;100.00;101504.25;2519934;23;20183;-68
2023/08/16 03:20:53;;;;;;;14.40;8.30;;;;;;;22.76;100.00;101531.94;2520290;23;20214;-68
2023/08/16 03:21:55;;;;;;;14.87;7.97;;;;;;;22.94;100.00;101556.31;2520612;23;20217;-68
2023/08/16 03:22:56;;;;;;;14.60;9.50;;;;;;;22.93;100.00;101552.69;2519933;23;20535;-68
2023/08/16 03:23:57;;;;;;;12.80;8.77;;;;;;;22.93;100.00;101558.34;2520323;23;20198;-68
2023/08/16 03:24:57;;;;;;;16.43;8.90;;;;;;;22.93;100.00;101563.25;2520097;23;20609;-68
2023/08/16 03:25:57;;;;;;;16.47;8.73;;;;;;;22.93;100.00;101568.91;2519963;23;20677;-68
2023/08/16 03:26:58;;;;;;;20.23;8.50;;;;;;;22.92;100.00;101559.63;2519901;23;20188;-67
2023/08/16 03:27:58;;;;;;;14.50;8.20;;;;;;;22.90;100.00;101567.84;2520538;23;20155;-67
2023/08/16 03:28:59;;;;;;;11.43;7.57;;;;;;;22.90;100.00;101565.00;2520172;23;20677;-68
2023/08/16 03:29:59;;;;;;;14.47;8.50;;;;;;;22.73;100.00;101549.88;2519962;23;20331;-68
2023/08/16 03:30:59;;;;;;;17.83;8.43;;;;;;;22.86;100.00;101561.59;2520344;23;20201;-68
2023/08/16 03:32:00;;;;;;;13.83;8.27;;;;;;;22.86;100.00;101564.44;2507580;23;20276;-68
2023/08/16 03:33:00;;;;;;;15.57;8.87;;;;;;;22.84;100.00;101558.50;2506786;23;20156;-68
2023/08/16 03:34:01;;;;;;;17.37;8.43;;;;;;;22.83;100.00;101565.41;2520995;23;20151;-68
2023/08/16 03:35:02;;;;;;;13.80;8.60;;;;;;;22.83;100.00;101559.00;2520233;23;20189;-68
2023/08/16 03:36:03;;;;;;;11.40;7.87;;;;;;;22.77;100.00;101556.09;2520346;23;20222;-68
2023/08/16 03:37:03;;;;;;;14.10;7.73;;;;;;;22.79;100.00;101569.72;2520517;23;20155;-68
2023/08/16 03:38:04;;;;;;;20.77;8.50;;;;;;;21.99;100.00;101448.97;2521265;23;20262;-68
2023/08/16 03:39:05;;;;;;;18.00;8.83;;;;;;;22.72;100.00;101568.09;2520956;23;20549;-68
2023/08/16 03:40:06;;;;;;;19.40;8.97;;;;;;;22.40;100.00;101523.97;2520695;23;20522;-68
2023/08/16 03:41:07;;;;;;;17.17;9.70;;;;;;;22.68;100.00;101563.94;2520875;23;20494;-68
2023/08/16 03:42:07;;;;;;;18.93;9.37;;;;;;;22.62;100.00;101571.56;2521238;23;20229;-68
2023/08/16 03:43:08;;;;;;;16.53;9.20;;;;;;;22.63;100.00;101568.22;2520649;23;20160;-68
2023/08/16 03:44:08;;;;;;;19.17;9.90;;;;;;;22.62;100.00;101568.75;2521158;23;20159;-68
2023/08/16 03:45:09;;;;;;;27.03;10.27;;;;;;;22.36;100.00;101528.28;2520568;23;20240;-68
2023/08/16 03:46:10;;;;;;;29.17;10.47;;;;;;;22.64;100.00;101572.63;2520590;23;20209;-68
2023/08/16 03:47:11;;;;;;;24.17;10.53;;;;;;;22.63;100.00;101576.69;2519606;23;20159;-68
2023/08/16 03:48:11;;;;;;;20.43;9.97;;;;;;;22.68;100.00;101572.41;2521158;23;20151;-67
2023/08/16 03:49:12;;;;;;;18.07;9.43;;;;;;;22.45;100.00;101542.28;2520868;23;20151;-68
2023/08/16 03:50:12;;;;;;;17.37;9.50;;;;;;;22.68;100.00;101575.25;2520932;23;20209;-68
2023/08/16 03:51:13;;;;;;;12.50;8.73;;;;;;;22.70;100.00;101572.69;2521055;23;20151;-68
2023/08/16 03:52:13;;;;;;;21.50;10.63;;;;;;;22.71;100.00;101574.22;2521128;23;20155;-68
2023/08/16 03:53:13;;;;;;;17.13;9.17;;;;;;;22.72;100.00;101573.75;2520784;23;20162;-68
2023/08/16 03:54:14;;;;;;;17.60;9.37;;;;;;;22.75;100.00;101574.81;2520678;23;20214;-68
2023/08/16 03:55:14;;;;;;;15.33;9.60;;;;;;;22.26;100.00;101499.38;2520902;23;20609;-67
2023/08/16 03:56:15;;;;;;;27.70;10.20;;;;;;;22.78;100.00;101566.13;2519795;23;20183;-67
2023/08/16 03:57:15;;;;;;;15.93;9.40;;;;;;;22.79;100.00;101579.00;2520367;23;20159;-67
2023/08/16 03:58:16;;;;;;;19.77;9.50;;;;;;;22.81;100.00;101572.81;2521381;23;20174;-68
2023/08/16 03:59:16;;;;;;;14.93;9.33;;;;;;;22.84;100.00;101569.81;2520889;23;20151;-68
2023/08/16 04:00:16;;;;;;;14.83;9.33;;;;;;;22.83;100.00;101571.06;2520619;23;20206;-68
2023/08/16 04:01:17;;;;;;;16.50;9.43;;;;;;;22.86;100.00;101592.69;2520622;23;20154;-68
2023/08/16 04:02:21;;;;;;;16.50;8.53;;;;;;;22.74;100.00;101547.84;2521269;23;20152;-68
2023/08/16 04:03:21;;;;;;;14.67;9.20;;;;;;;22.28;100.00;101487.59;2521000;23;20151;-68
2023/08/16 04:04:22;;;;;;;16.23;8.50;;;;;;;22.94;100.00;101579.72;2520762;23;20147;-68
2023/08/16 04:05:22;;;;;;;12.80;9.13;;;;;;;22.97;100.00;101569.47;2520993;23;20144;-68
2023/08/16 04:06:23;;;;;;;18.10;8.60;;;;;;;22.99;100.00;101569.72;2519871;23;20176;-68
2023/08/16 04:07:23;;;;;;;10.30;8.30;;;;;;;23.01;100.00;101570.78;2520223;23;20154;-68
2023/08/16 04:08:24;;;;;;;12.07;8.67;;;;;;;22.99;100.00;101564.88;2520913;23;20198;-68
2023/08/16 04:09:25;;;;;;;13.60;8.13;;;;;;;23.04;100.00;101581.13;2520932;23;20155;-68
2023/08/16 04:10:26;;;;;;;17.20;8.60;;;;;;;23.09;100.00;101573.97;2520726;23;20154;-68
2023/08/16 04:11:26;;;;;;;12.37;8.27;;;;;;;23.13;100.00;101574.53;2520956;23;20226;-68
2023/08/16 04:12:26;;;;;;;11.83;8.17;;;;;;;23.16;100.00;101577.16;2520852;23;20148;-68
2023/08/16 04:13:27;;;;;;;10.43;7.60;;;;;;;22.37;100.00;101454.34;2520778;23;20240;-68
2023/08/16 04:14:27;;;;;;;13.17;8.00;;;;;;;23.21;100.00;101582.13;2520552;23;20251;-68
2023/08/16 04:15:28;;;;;;;11.27;7.90;;;;;;;23.20;100.00;101579.78;2520601;23;20147;-68
2023/08/16 04:16:28;;;;;;;11.90;7.77;;;;;;;23.23;100.00;101582.38;2520426;23;20238;-68
2023/08/16 04:17:28;;;;;;;10.13;8.10;;;;;;;23.25;100.00;101571.38;2519722;23;20502;-68
2023/08/16 04:18:29;;;;;;;13.37;8.00;;;;;;;23.29;100.00;101577.56;2508133;23;20166;-68
2023/08/16 04:19:31;;;;;;;13.17;7.43;;;;;;;23.30;100.00;101579.13;2508227;23;20152;-67
2023/08/16 04:20:31;;;;;;;9.93;7.43;;;;;;;22.67;100.00;101480.44;2520411;23;20191;-68
2023/08/16 04:21:32;;;;;;;10.03;7.33;;;;;;;23.35;100.00;101575.59;2521007;23;20151;-68
2023/08/16 04:22:32;;;;;;;8.03;7.23;;;;;;;22.73;100.00;101475.63;2521040;23;20151;-68
2023/08/16 04:23:33;;;;;;;11.20;7.47;;;;;;;23.39;100.00;101578.97;2521097;23;20503;-68
2023/08/16 04:24:33;;;;;;;9.50;7.53;;;;;;;23.39;100.00;101578.97;2520451;23;20230;-68
2023/08/16 04:25:34;;;;;;;8.43;7.60;;;;;;;23.43;100.00;101582.34;2521089;23;20159;-68
2023/08/16 04:26:35;;;;;;;11.93;7.87;;;;;;;23.43;100.00;101590.09;2520350;23;20189;-68
2023/08/16 04:27:35;;;;;;;9.53;8.30;;;;;;;23.44;100.00;101591.63;2519545;23;20158;-67
2023/08/16 04:28:35;;;;;;;11.30;8.20;;;;;;;22.90;100.00;101490.72;2520742;23;20165;-68
2023/08/16 04:29:36;;;;;;;15.30;7.67;;;;;;;23.50;100.00;101581.91;2520375;23;20166;-67
2023/08/16 04:30:36;;;;;;;14.20;7.43;;;;;;;23.50;100.00;101590.41;2520642;23;20155;-68
2023/08/16 04:31:37;;;;;;;13.57;8.17;;;;;;;23.54;100.00;101587.38;2521047;23;20158;-67
2023/08/16 04:32:37;;;;;;;17.73;8.40;;;;;;;23.51;100.00;101577.03;2520840;23;20159;-61
2023/08/16 04:33:37;;;;;;;22.80;8.67;;;;;;;23.55;100.00;101592.50;2520986;23;20617;-59
2023/08/16 04:34:38;;;;;;;15.80;7.23;;;;;;;23.31;100.00;101557.28;2520346;23;20155;-60
2023/08/16 04:35:38;;;;;;;11.20;7.10;;;;;;;23.71;100.00;101589.09;2521145;23;20218;-62
2023/08/16 04:36:39;;;;;;;12.60;6.97;;;;;;;23.74;100.00;101588.06;2521830;23;20191;-62
2023/08/16 04:37:39;;;;;;;12.37;7.77;;;;;;;23.81;100.00;101581.19;2521870;23;20187;-63
2023/08/16 04:38:40;;;;;;;12.97;7.43;;;;;;;23.81;100.00;101593.31;2521756;23;20211;-62
2023/08/16 04:39:40;;;;;;;14.10;7.90;;;;;;;23.82;100.00;101596.88;2521397;23;20613;-61